createdAt,value
2022-09-06T00:07:11.638Z,101299.41
2022-09-06T00:24:01.181Z,101292.42
2022-09-06T00:40:53.392Z,101289.81
2022-09-06T00:57:43.723Z,101289.77
2022-09-06T01:14:45.525Z,101285.77
2022-09-06T01:31:41.043Z,101281.30
2022-09-06T01:48:41.506Z,101278.56
2022-09-06T02:05:39.669Z,101273.94
2022-09-06T02:22:32.352Z,101272.52
2022-09-06T02:39:22.774Z,101279.77
2022-09-06T02:56:14.722Z,101288.63
2022-09-06T03:13:06.841Z,101283.34
2022-09-06T03:29:55.425Z,101270.72
2022-09-06T03:46:44.768Z,101278.74
2022-09-06T04:03:33.264Z,101273.80
2022-09-06T04:20:21.610Z,101263.70
2022-09-06T04:37:10.359Z,101266.32
2022-09-06T04:54:01.839Z,101269.30
2022-09-06T05:10:52.688Z,101266.98
2022-09-06T05:27:41.108Z,101268.83
2022-09-06T05:44:29.969Z,101265.33
2022-09-06T06:01:27.207Z,101268.52
2022-09-06T06:18:16.198Z,101262.80
2022-09-06T06:35:09.761Z,101267.65
2022-09-06T06:51:58.436Z,101271.52
2022-09-06T07:08:48.393Z,101279.13
2022-09-06T07:25:38.885Z,101287.67
2022-09-06T07:42:27.906Z,101287.59
2022-09-06T07:59:17.003Z,101276.89
2022-09-06T08:16:07.312Z,101278.36
2022-09-06T08:33:00.715Z,101280.92
2022-09-06T08:50:00.767Z,101269.39
2022-09-06T09:06:58.048Z,101255.11
2022-09-06T09:23:56.657Z,101241.60
2022-09-06T09:40:54.389Z,101226.83
2022-09-06T09:57:52.004Z,101211.92
2022-09-06T10:14:50.312Z,101189.59
2022-09-06T10:32:07.921Z,101173.55
2022-09-06T10:48:56.726Z,101158.88
2022-09-06T11:05:56.219Z,101148.90
2022-09-06T11:23:00.214Z,101132.39
2022-09-06T11:57:19.274Z,101094.20
2022-09-06T12:14:11.288Z,101076.94
2022-09-06T12:31:01.283Z,101064.30
2022-09-06T12:47:52.421Z,101046.62
2022-09-06T13:04:44.309Z,101032.24
2022-09-06T13:21:36.805Z,101022.36
2022-09-06T13:38:41.633Z,101019.91
2022-09-06T13:55:35.209Z,101015.48
2022-09-06T14:12:21.826Z,100997.02
2022-09-06T14:29:13.346Z,100982.58
2022-09-06T14:46:08.997Z,100977.09
2022-09-06T15:02:57.863Z,100967.95
2022-09-06T15:19:49.249Z,100949.39
2022-09-06T15:36:38.485Z,100934.73
2022-09-06T15:53:26.901Z,100926.09
2022-09-06T16:10:15.673Z,100910.21
2022-09-06T16:27:04.261Z,100896.55
2022-09-06T16:43:54.467Z,100889.38
2022-09-06T17:00:46.152Z,100895.95
2022-09-06T17:17:34.971Z,100901.74
2022-09-06T17:34:23.233Z,100904.04
2022-09-06T17:51:12.679Z,100913.61
2022-09-06T18:08:01.216Z,100919.64
2022-09-06T18:24:53.020Z,100924.24
2022-09-06T18:42:07.463Z,100927.59
2022-09-06T18:59:01.744Z,100937.10
2022-09-06T19:15:52.883Z,100937.83
2022-09-06T19:32:44.622Z,100931.20
2022-09-06T19:49:33.119Z,100931.76
2022-09-06T20:06:22.831Z,100920.00
2022-09-06T20:23:13.762Z,100916.90
2022-09-06T20:40:05.560Z,100915.95
2022-09-06T20:56:55.500Z,100912.06
2022-09-06T21:13:46.219Z,100902.16
2022-09-06T21:30:35.482Z,100896.77
2022-09-06T21:47:23.788Z,100894.23
2022-09-06T22:04:12.892Z,100887.02
2022-09-06T22:21:05.842Z,100889.45
2022-09-06T22:37:58.408Z,100886.48
2022-09-06T22:54:47.422Z,100886.20
2022-09-06T23:11:38.642Z,100880.85
2022-09-06T23:28:30.601Z,100876.69
2022-09-06T23:45:20.796Z,100871.06
